createdAt,value
2019-02-16T00:00:12.152Z,9.40
2019-02-16T00:01:12.130Z,9.50
2019-02-16T00:02:12.101Z,8.90
2019-02-16T00:03:12.082Z,9.80
2019-02-16T00:04:12.051Z,9.30
2019-02-16T00:05:12.031Z,9.00
2019-02-16T00:06:12.005Z,9.60
2019-02-16T00:07:11.987Z,9.40
2019-02-16T00:08:11.956Z,9.00
2019-02-16T00:09:11.928Z,9.30
2019-02-16T00:10:11.908Z,9.20
2019-02-16T00:11:11.890Z,8.60
2019-02-16T00:12:11.858Z,9.50
2019-02-16T00:13:11.839Z,8.40
2019-02-16T00:14:11.862Z,9.40
2019-02-16T00:15:11.790Z,8.90
2019-02-16T00:16:11.759Z,9.10
2019-02-16T00:17:11.741Z,9.60
2019-02-16T00:18:11.712Z,9.10
2019-02-16T00:19:11.687Z,9.90
2019-02-16T00:20:11.668Z,10.30
2019-02-16T00:21:11.650Z,10.00
2019-02-16T00:22:11.617Z,10.30
2019-02-16T00:23:11.592Z,10.90
2019-02-16T00:24:11.565Z,10.10
2019-02-16T00:25:11.547Z,11.10
2019-02-16T00:26:11.519Z,11.30
2019-02-16T00:27:11.495Z,10.90
2019-02-16T00:28:11.477Z,11.10
2019-02-16T00:29:11.443Z,10.80
2019-02-16T00:30:11.422Z,10.80
2019-02-16T00:31:11.397Z,11.20
2019-02-16T00:32:11.374Z,10.60
2019-02-16T00:33:11.348Z,10.60
2019-02-16T00:34:11.325Z,10.70
2019-02-16T00:35:11.314Z,10.50
2019-02-16T00:36:11.274Z,10.30
2019-02-16T00:37:11.250Z,10.80
2019-02-16T00:38:11.227Z,11.20
2019-02-16T00:39:11.199Z,10.40
2019-02-16T00:40:11.187Z,11.10
2019-02-16T00:41:11.151Z,10.90
2019-02-16T00:42:11.130Z,10.30
2019-02-16T00:43:11.107Z,11.00
2019-02-16T00:44:11.081Z,10.60
2019-02-16T00:45:11.063Z,10.60
2019-02-16T00:46:11.029Z,11.10
2019-02-16T00:47:11.011Z,10.20
2019-02-16T00:48:10.983Z,11.00
2019-02-16T00:49:10.960Z,10.60
2019-02-16T00:50:10.935Z,10.80
2019-02-16T00:51:13.595Z,10.70
2019-02-16T00:52:10.887Z,10.70
2019-02-16T00:53:10.862Z,10.60
2019-02-16T00:54:10.835Z,11.40
2019-02-16T00:55:10.813Z,10.80
2019-02-16T00:56:10.789Z,10.90
2019-02-16T00:57:10.761Z,11.10
2019-02-16T00:58:10.746Z,11.00
2019-02-16T00:59:10.715Z,11.30
2019-02-16T01:00:10.688Z,10.60
2019-02-16T01:01:10.666Z,11.20
2019-02-16T01:02:10.639Z,11.40
2019-02-16T01:03:10.619Z,11.10
2019-02-16T01:04:10.592Z,11.70
2019-02-16T01:05:10.568Z,11.60
2019-02-16T01:06:10.551Z,11.50
2019-02-16T01:07:10.519Z,11.30
2019-02-16T01:08:10.498Z,11.50
2019-02-16T01:09:10.475Z,10.60
2019-02-16T01:10:10.447Z,11.00
2019-02-16T01:11:10.424Z,10.80
2019-02-16T01:12:10.401Z,11.10
2019-02-16T01:13:10.372Z,10.90
2019-02-16T01:14:10.347Z,10.50
2019-02-16T01:15:10.319Z,11.00
2019-02-16T01:16:10.297Z,11.10
2019-02-16T01:17:10.276Z,12.10
2019-02-16T01:18:10.251Z,11.60
2019-02-16T01:19:10.224Z,10.70
2019-02-16T01:20:10.201Z,10.50
2019-02-16T01:21:10.173Z,10.70
2019-02-16T01:22:10.152Z,10.90
2019-02-16T01:23:10.128Z,12.10
2019-02-16T01:24:10.104Z,11.20
2019-02-16T01:25:10.078Z,10.90
2019-02-16T01:26:10.058Z,11.30
2019-02-16T01:27:10.027Z,10.20
2019-02-16T01:28:10.003Z,10.80
2019-02-16T01:29:09.984Z,10.70
2019-02-16T01:30:09.958Z,11.20
2019-02-16T01:31:09.930Z,10.50
2019-02-16T01:32:09.900Z,11.10
2019-02-16T01:33:09.883Z,10.90
2019-02-16T01:34:09.856Z,10.60
2019-02-16T01:35:09.832Z,11.20
2019-02-16T01:36:09.808Z,11.00
2019-02-16T01:37:09.784Z,11.70
2019-02-16T01:38:09.756Z,11.00
2019-02-16T01:39:09.735Z,11.30
2019-02-16T01:40:09.709Z,10.60
2019-02-16T01:41:09.684Z,10.70
2019-02-16T01:42:09.666Z,10.50
2019-02-16T01:43:09.640Z,10.70
2019-02-16T01:44:09.612Z,10.60
2019-02-16T01:45:09.646Z,10.10
2019-02-16T01:46:09.565Z,10.50
2019-02-16T01:47:09.538Z,10.40
2019-02-16T01:48:09.516Z,11.30
2019-02-16T01:49:09.495Z,10.80
2019-02-16T01:50:09.464Z,10.70
2019-02-16T01:51:09.441Z,10.80
2019-02-16T01:52:09.418Z,10.60
2019-02-16T01:53:09.388Z,11.00
2019-02-16T01:54:09.364Z,10.50
2019-02-16T01:55:09.341Z,10.40
2019-02-16T01:56:09.313Z,10.00
2019-02-16T01:57:09.295Z,10.50
2019-02-16T01:58:09.264Z,10.10
2019-02-16T01:59:09.249Z,9.90
2019-02-16T02:00:09.220Z,10.10
2019-02-16T02:01:09.197Z,10.40
2019-02-16T02:02:09.166Z,10.60
2019-02-16T02:03:09.148Z,10.10
2019-02-16T02:04:09.116Z,10.50
2019-02-16T02:05:09.098Z,10.80
2019-02-16T02:06:09.075Z,10.70
2019-02-16T02:07:09.047Z,10.10
2019-02-16T02:08:09.023Z,10.30
2019-02-16T02:09:08.998Z,10.30
2019-02-16T02:10:08.974Z,10.30
2019-02-16T02:11:08.947Z,10.90
2019-02-16T02:12:08.925Z,10.90
2019-02-16T02:13:08.898Z,10.30
2019-02-16T02:14:08.880Z,10.40
2019-02-16T02:15:08.854Z,9.80
2019-02-16T02:16:08.824Z,10.20
2019-02-16T02:17:08.798Z,10.00
2019-02-16T02:18:08.774Z,9.70
2019-02-16T02:19:08.752Z,9.90
2019-02-16T02:20:08.725Z,9.40
2019-02-16T02:21:08.701Z,9.30
2019-02-16T02:22:08.674Z,9.30
2019-02-16T02:23:08.652Z,9.30
2019-02-16T02:24:08.630Z,9.90
2019-02-16T02:25:08.600Z,9.90
2019-02-16T02:26:08.588Z,9.20
2019-02-16T02:27:08.552Z,9.60
2019-02-16T02:28:08.525Z,10.70
2019-02-16T02:29:08.504Z,10.10
2019-02-16T02:30:08.483Z,9.90
2019-02-16T02:31:08.460Z,9.50
2019-02-16T02:32:08.431Z,9.00
2019-02-16T02:33:08.405Z,9.30
2019-02-16T02:34:08.397Z,9.40
2019-02-16T02:35:08.358Z,8.90
2019-02-16T02:36:08.331Z,9.90
2019-02-16T02:37:08.307Z,9.30
2019-02-16T02:38:08.284Z,10.80
2019-02-16T02:39:08.258Z,10.30
2019-02-16T02:40:08.234Z,10.50
2019-02-16T02:41:08.206Z,10.30
2019-02-16T02:42:08.185Z,9.70
2019-02-16T02:43:08.163Z,9.60
2019-02-16T02:44:08.135Z,10.10
2019-02-16T02:45:08.108Z,9.20
2019-02-16T02:46:08.093Z,9.50
2019-02-16T02:47:08.061Z,9.60
2019-02-16T02:48:08.035Z,9.10
2019-02-16T02:49:08.011Z,9.40
2019-02-16T02:50:07.985Z,9.10
2019-02-16T02:51:07.967Z,8.20
2019-02-16T02:52:07.944Z,8.40
2019-02-16T02:53:07.907Z,8.80
2019-02-16T02:54:07.885Z,8.40
2019-02-16T02:55:07.870Z,8.70
2019-02-16T02:56:07.835Z,9.00
2019-02-16T02:57:07.815Z,8.70
2019-02-16T02:58:07.794Z,9.30
2019-02-16T02:59:07.769Z,8.60
2019-02-16T03:00:07.737Z,9.40
2019-02-16T03:01:07.712Z,9.90
2019-02-16T03:02:07.685Z,9.50
2019-02-16T03:03:07.670Z,9.20
2019-02-16T03:04:07.637Z,9.40
2019-02-16T03:05:07.613Z,9.40
2019-02-16T03:06:07.591Z,8.80
2019-02-16T03:07:07.571Z,9.70
2019-02-16T03:08:07.559Z,9.00
2019-02-16T03:09:07.520Z,9.50
2019-02-16T03:10:07.492Z,9.10
2019-02-16T03:11:07.469Z,9.40
2019-02-16T03:12:07.445Z,9.40
2019-02-16T03:13:07.425Z,9.50
2019-02-16T03:14:07.389Z,9.10
2019-02-16T03:15:07.371Z,9.60
2019-02-16T03:16:07.342Z,9.70
2019-02-16T03:17:07.315Z,9.50
2019-02-16T03:18:07.293Z,8.80
2019-02-16T03:19:07.269Z,9.90
2019-02-16T03:20:07.244Z,9.60
2019-02-16T03:21:07.220Z,10.10
2019-02-16T03:22:07.197Z,10.50
2019-02-16T03:23:07.174Z,10.80
2019-02-16T03:24:07.147Z,10.70
2019-02-16T03:25:07.122Z,10.20
2019-02-16T03:26:07.096Z,9.30
2019-02-16T03:27:07.075Z,10.60
2019-02-16T03:28:07.047Z,9.80
2019-02-16T03:29:07.025Z,9.90
2019-02-16T03:30:06.994Z,9.80
2019-02-16T03:31:06.976Z,9.00
2019-02-16T03:32:06.958Z,9.50
2019-02-16T03:33:06.949Z,10.00
2019-02-16T03:34:06.898Z,10.60
2019-02-16T03:35:06.886Z,11.60
2019-02-16T03:36:06.849Z,11.70
2019-02-16T03:37:06.826Z,11.00
2019-02-16T03:38:06.800Z,10.90
2019-02-16T03:39:06.771Z,11.00
2019-02-16T03:40:06.746Z,11.20
2019-02-16T03:41:06.728Z,9.80
2019-02-16T03:42:06.700Z,10.40
2019-02-16T03:43:06.677Z,10.30
2019-02-16T03:44:06.652Z,10.60
2019-02-16T03:45:06.635Z,9.90
2019-02-16T03:46:06.649Z,9.20
2019-02-16T03:47:06.578Z,9.20
2019-02-16T03:48:06.555Z,9.30
2019-02-16T03:49:06.525Z,9.40
2019-02-16T03:50:06.503Z,8.90
2019-02-16T03:51:06.478Z,10.20
2019-02-16T03:52:13.737Z,11.00
2019-02-16T03:53:06.428Z,10.20
2019-02-16T03:54:06.406Z,9.80
2019-02-16T03:55:06.371Z,9.70
2019-02-16T03:56:06.344Z,10.00
2019-02-16T03:57:06.325Z,9.40
2019-02-16T03:58:06.307Z,9.40
2019-02-16T03:59:06.277Z,9.70
2019-02-16T04:00:06.252Z,10.10
2019-02-16T04:01:06.231Z,9.40
2019-02-16T04:02:06.202Z,9.80
2019-02-16T04:03:06.191Z,9.00
2019-02-16T04:04:06.158Z,9.20
2019-02-16T04:05:06.132Z,9.30
2019-02-16T04:06:06.105Z,9.80
2019-02-16T04:07:06.078Z,9.60
2019-02-16T04:08:06.054Z,9.00
2019-02-16T04:09:06.034Z,9.90
2019-02-16T04:10:06.011Z,8.90
2019-02-16T04:11:05.982Z,10.30
2019-02-16T04:12:05.964Z,9.70
2019-02-16T04:13:05.934Z,10.20
2019-02-16T04:14:05.907Z,9.80
2019-02-16T04:15:05.881Z,10.90
2019-02-16T04:16:05.858Z,11.10
2019-02-16T04:17:05.833Z,9.90
2019-02-16T04:18:05.802Z,10.60
2019-02-16T04:19:05.785Z,10.50
2019-02-16T04:20:05.755Z,10.20
2019-02-16T04:21:05.734Z,10.60
2019-02-16T04:22:05.706Z,8.80
2019-02-16T04:23:05.686Z,9.30
2019-02-16T04:24:05.657Z,10.70
2019-02-16T04:25:05.632Z,10.20
2019-02-16T04:26:05.607Z,10.40
2019-02-16T04:27:05.583Z,10.50
2019-02-16T04:28:05.564Z,10.60
2019-02-16T04:29:05.534Z,9.40
2019-02-16T04:30:05.507Z,8.40
2019-02-16T04:31:05.485Z,10.30
2019-02-16T04:32:05.461Z,9.50
2019-02-16T04:33:05.435Z,9.20
2019-02-16T04:34:05.415Z,9.10
2019-02-16T04:35:05.385Z,9.20
2019-02-16T04:36:05.358Z,9.50
2019-02-16T04:37:05.332Z,9.50
2019-02-16T04:38:05.314Z,9.10
2019-02-16T04:39:05.283Z,8.50
2019-02-16T04:40:05.257Z,8.70
2019-02-16T04:41:05.234Z,8.00
2019-02-16T04:42:05.207Z,9.60
2019-02-16T04:43:05.190Z,10.00
2019-02-16T04:44:05.160Z,10.00
2019-02-16T04:45:05.141Z,9.60
2019-02-16T04:46:05.117Z,10.40
2019-02-16T04:47:05.086Z,10.10
2019-02-16T04:48:05.162Z,10.60
2019-02-16T04:49:05.034Z,9.60
2019-02-16T04:50:05.014Z,9.10
2019-02-16T04:51:04.985Z,9.50
2019-02-16T04:52:04.963Z,10.40
2019-02-16T04:53:04.935Z,9.90
2019-02-16T04:54:04.912Z,9.90
2019-02-16T04:55:04.908Z,9.60
2019-02-16T04:56:04.861Z,10.80
2019-02-16T04:57:04.834Z,10.80
2019-02-16T04:58:04.813Z,9.30
2019-02-16T04:59:04.785Z,9.40
2019-02-16T05:00:04.761Z,9.60
2019-02-16T05:01:04.738Z,9.00
2019-02-16T05:02:04.721Z,10.00
2019-02-16T05:03:04.694Z,11.20
2019-02-16T05:04:04.660Z,10.70
2019-02-16T05:05:04.644Z,9.90
2019-02-16T05:06:04.616Z,9.70
2019-02-16T05:07:04.587Z,9.80
2019-02-16T05:08:04.563Z,9.40
2019-02-16T05:09:04.547Z,9.20
2019-02-16T05:10:04.511Z,10.80
2019-02-16T05:11:04.509Z,9.60
2019-02-16T05:12:04.466Z,11.10
2019-02-16T05:13:04.440Z,11.30
2019-02-16T05:14:04.414Z,8.90
2019-02-16T05:15:04.386Z,8.60
2019-02-16T05:16:04.362Z,9.10
2019-02-16T05:17:04.336Z,8.90
2019-02-16T05:18:04.312Z,9.20
2019-02-16T05:19:04.284Z,8.70
2019-02-16T05:20:04.266Z,8.90
2019-02-16T05:21:04.243Z,9.00
2019-02-16T05:22:04.212Z,10.10
2019-02-16T05:23:04.187Z,9.30
2019-02-16T05:24:04.158Z,9.50
2019-02-16T05:25:04.138Z,9.80
2019-02-16T05:26:04.115Z,9.00
2019-02-16T05:27:04.089Z,8.70
2019-02-16T05:28:04.064Z,9.10
2019-02-16T05:29:04.045Z,9.70
2019-02-16T05:30:04.014Z,8.90
2019-02-16T05:31:04.094Z,8.90
2019-02-16T05:32:03.963Z,8.80
2019-02-16T05:33:03.934Z,8.90
2019-02-16T05:34:03.913Z,8.70
2019-02-16T05:35:03.886Z,8.20
2019-02-16T05:36:03.860Z,8.90
2019-02-16T05:37:03.837Z,9.30
2019-02-16T05:38:03.811Z,9.90
2019-02-16T05:39:03.811Z,9.80
2019-02-16T05:40:03.770Z,9.00
2019-02-16T05:41:03.742Z,10.10
2019-02-16T05:42:03.713Z,8.80
2019-02-16T05:43:03.689Z,9.10
2019-02-16T05:44:03.670Z,8.90
2019-02-16T05:45:03.635Z,9.80
2019-02-16T05:46:03.614Z,10.70
2019-02-16T05:47:03.589Z,9.90
2019-02-16T05:48:03.570Z,9.90
2019-02-16T05:49:03.533Z,10.30
2019-02-16T05:50:03.511Z,9.80
2019-02-16T05:51:03.486Z,10.20
2019-02-16T05:52:03.465Z,11.10
2019-02-16T05:53:03.437Z,10.20
2019-02-16T05:54:03.415Z,9.20
2019-02-16T05:55:03.389Z,10.30
2019-02-16T05:56:03.367Z,8.80
2019-02-16T05:57:03.335Z,8.40
2019-02-16T05:58:03.312Z,8.70
2019-02-16T05:59:03.289Z,10.10
2019-02-16T06:00:03.265Z,10.30
2019-02-16T06:01:03.252Z,10.10
2019-02-16T06:02:03.212Z,9.10
2019-02-16T06:03:03.191Z,8.60
2019-02-16T06:04:03.162Z,9.60
2019-02-16T06:05:03.142Z,9.80
2019-02-16T06:06:03.119Z,9.50
2019-02-16T06:07:03.109Z,9.40
2019-02-16T06:08:03.062Z,9.50
2019-02-16T06:09:03.037Z,9.60
2019-02-16T06:10:03.013Z,9.20
2019-02-16T06:11:03.298Z,10.20
2019-02-16T06:12:02.969Z,8.90
2019-02-16T06:13:02.947Z,8.60
2019-02-16T06:14:02.911Z,8.80
2019-02-16T06:15:02.886Z,10.70
2019-02-16T06:16:02.869Z,10.10
2019-02-16T06:17:02.837Z,10.20
2019-02-16T06:18:02.814Z,11.20
2019-02-16T06:19:02.790Z,9.30
2019-02-16T06:20:02.766Z,10.70
2019-02-16T06:21:02.737Z,10.30
2019-02-16T06:22:02.716Z,9.80
2019-02-16T06:23:04.611Z,10.30
2019-02-16T06:24:02.663Z,9.20
2019-02-16T06:25:02.640Z,9.80
2019-02-16T06:26:02.618Z,10.80
2019-02-16T06:27:02.591Z,9.30
2019-02-16T06:28:02.560Z,8.00
2019-02-16T06:29:02.538Z,8.70
2019-02-16T06:30:02.521Z,9.00
2019-02-16T06:31:02.487Z,8.40
2019-02-16T06:32:02.465Z,9.10
2019-02-16T06:33:02.445Z,7.60
2019-02-16T06:34:02.416Z,8.90
2019-02-16T06:35:02.386Z,8.30
2019-02-16T06:36:02.360Z,8.80
2019-02-16T06:37:02.351Z,8.50
2019-02-16T06:38:02.313Z,8.00
2019-02-16T06:39:02.290Z,8.30
2019-02-16T06:40:02.262Z,7.70
2019-02-16T06:41:02.239Z,7.80
2019-02-16T06:42:02.216Z,9.40
2019-02-16T06:43:02.193Z,9.30
2019-02-16T06:44:02.160Z,8.70
2019-02-16T06:45:02.137Z,9.00
2019-02-16T06:46:02.114Z,8.20
2019-02-16T06:47:02.090Z,8.90
2019-02-16T06:48:02.064Z,7.50
2019-02-16T06:49:02.040Z,8.70
2019-02-16T06:50:02.026Z,9.70
2019-02-16T06:51:01.994Z,7.60
2019-02-16T06:52:01.960Z,8.90
2019-02-16T06:53:01.940Z,9.50
2019-02-16T06:54:01.912Z,8.20
2019-02-16T06:55:01.886Z,8.40
2019-02-16T06:56:01.866Z,8.90
2019-02-16T06:57:01.838Z,8.40
2019-02-16T06:58:01.823Z,8.90
2019-02-16T06:59:01.788Z,8.10
2019-02-16T07:00:01.764Z,8.80
2019-02-16T07:01:01.751Z,8.70
2019-02-16T07:02:01.713Z,9.10
2019-02-16T07:03:01.692Z,9.70
2019-02-16T07:04:01.663Z,10.10
2019-02-16T07:05:01.638Z,9.40
2019-02-16T07:06:01.621Z,9.10
2019-02-16T07:07:01.589Z,9.80
2019-02-16T07:08:01.565Z,10.10
2019-02-16T07:09:01.545Z,9.60
2019-02-16T07:10:01.514Z,9.90
2019-02-16T07:11:01.489Z,10.70
2019-02-16T07:12:01.461Z,8.90
2019-02-16T07:13:01.442Z,8.70
2019-02-16T07:14:01.414Z,8.70
2019-02-16T07:15:01.390Z,9.70
2019-02-16T07:16:01.363Z,9.90
2019-02-16T07:17:01.337Z,9.80
2019-02-16T07:18:01.318Z,10.00
2019-02-16T07:19:01.295Z,10.30
2019-02-16T07:20:01.271Z,10.50
2019-02-16T07:21:01.245Z,11.00
2019-02-16T07:22:01.219Z,9.90
2019-02-16T07:23:01.196Z,9.60
2019-02-16T07:24:01.171Z,10.40
2019-02-16T07:25:01.141Z,9.90
2019-02-16T07:26:01.130Z,10.50
2019-02-16T07:27:01.090Z,10.00
2019-02-16T07:28:01.067Z,9.20
2019-02-16T07:29:01.050Z,9.30
2019-02-16T07:30:01.018Z,10.10
2019-02-16T07:31:00.995Z,9.50
2019-02-16T07:32:00.964Z,9.50
2019-02-16T07:33:00.950Z,9.00
2019-02-16T07:34:00.922Z,9.60
2019-02-16T07:35:00.892Z,8.50
2019-02-16T07:36:00.864Z,9.10
2019-02-16T07:37:00.846Z,9.20
2019-02-16T07:38:00.826Z,9.20
2019-02-16T07:39:00.801Z,9.00
2019-02-16T07:40:00.813Z,8.50
2019-02-16T07:41:00.741Z,9.00
2019-02-16T07:42:00.723Z,8.20
2019-02-16T07:43:00.693Z,8.10
2019-02-16T07:44:00.676Z,8.50
2019-02-16T07:45:00.648Z,7.30
2019-02-16T07:46:00.630Z,8.10
2019-02-16T07:47:00.604Z,8.30
2019-02-16T07:48:00.575Z,8.30
2019-02-16T07:49:00.551Z,7.70
2019-02-16T07:50:00.537Z,8.10
2019-02-16T07:51:00.506Z,7.80
2019-02-16T07:52:00.488Z,6.90
2019-02-16T07:53:00.455Z,6.90
2019-02-16T07:54:00.425Z,7.00
2019-02-16T07:55:00.409Z,7.40
2019-02-16T07:56:00.379Z,6.70
2019-02-16T07:57:00.354Z,6.80
2019-02-16T07:58:00.332Z,6.60
2019-02-16T07:59:00.308Z,6.20
2019-02-16T08:00:00.430Z,6.40
2019-02-16T08:01:00.255Z,6.10
2019-02-16T08:02:00.235Z,5.50
2019-02-16T08:03:00.212Z,5.70
2019-02-16T08:04:00.186Z,5.60
2019-02-16T08:05:00.344Z,5.80
2019-02-16T08:06:00.139Z,6.10
2019-02-16T08:07:00.115Z,5.60
2019-02-16T08:08:00.091Z,5.30
2019-02-16T08:09:00.069Z,5.70
2019-02-16T08:10:00.100Z,5.40
2019-02-16T08:11:00.022Z,5.30
2019-02-16T08:11:59.999Z,5.70
2019-02-16T08:12:59.979Z,5.60
2019-02-16T08:13:59.961Z,5.40
2019-02-16T08:14:59.924Z,5.50
2019-02-16T08:15:59.909Z,5.10
2019-02-16T08:16:59.882Z,5.50
2019-02-16T08:17:59.864Z,5.40
2019-02-16T08:18:59.853Z,5.20
2019-02-16T08:19:59.808Z,5.70
2019-02-16T08:20:59.791Z,5.50
2019-02-16T08:21:59.763Z,5.30
2019-02-16T08:22:59.738Z,5.20
2019-02-16T08:23:59.775Z,5.20
2019-02-16T08:24:59.699Z,5.40
2019-02-16T08:25:59.676Z,5.40
2019-02-16T08:26:59.651Z,5.10
2019-02-16T08:27:59.635Z,5.10
2019-02-16T08:28:59.604Z,5.10
2019-02-16T08:29:59.586Z,5.30
2019-02-16T08:30:59.573Z,4.80
2019-02-16T08:31:59.542Z,4.80
2019-02-16T08:32:59.518Z,4.60
2019-02-16T08:33:59.504Z,4.40
2019-02-16T08:34:59.483Z,4.50
2019-02-16T08:35:59.451Z,4.40
2019-02-16T08:36:59.432Z,4.60
2019-02-16T08:37:59.412Z,4.10
2019-02-16T08:38:59.392Z,4.40
2019-02-16T08:39:59.363Z,4.20
2019-02-16T08:40:59.346Z,4.20
2019-02-16T08:41:59.320Z,3.90
2019-02-16T08:42:59.304Z,4.30
2019-02-16T08:43:59.274Z,4.10
2019-02-16T08:44:59.266Z,4.20
2019-02-16T08:45:59.235Z,4.30
2019-02-16T08:46:59.217Z,4.30
2019-02-16T08:47:59.197Z,4.50
2019-02-16T08:48:59.168Z,4.00
2019-02-16T08:49:59.146Z,3.70
2019-02-16T08:50:59.126Z,4.00
2019-02-16T08:51:59.104Z,3.80
2019-02-16T08:52:59.084Z,3.90
2019-02-16T08:53:59.072Z,4.00
2019-02-16T08:54:59.042Z,3.40
2019-02-16T08:55:59.018Z,3.80
2019-02-16T08:56:58.997Z,3.90
2019-02-16T08:57:58.982Z,3.50
2019-02-16T08:58:58.956Z,3.50
2019-02-16T08:59:58.937Z,3.60
2019-02-16T09:00:58.914Z,3.40
2019-02-16T09:01:58.896Z,3.50
2019-02-16T09:02:58.869Z,3.50
2019-02-16T09:03:58.847Z,3.20
2019-02-16T09:04:58.824Z,3.20
2019-02-16T09:05:58.807Z,3.40
2019-02-16T09:06:58.790Z,3.10
2019-02-16T09:07:58.767Z,3.60
2019-02-16T09:08:58.749Z,3.60
2019-02-16T09:09:58.729Z,3.50
2019-02-16T09:10:58.700Z,3.20
2019-02-16T09:11:58.675Z,3.50
2019-02-16T09:12:58.658Z,3.30
2019-02-16T09:13:58.637Z,3.50
2019-02-16T09:14:58.622Z,3.50
2019-02-16T09:15:58.592Z,3.20
2019-02-16T09:16:58.572Z,3.10
2019-02-16T09:17:58.552Z,3.60
2019-02-16T09:18:58.528Z,3.50
2019-02-16T09:19:58.508Z,3.40
2019-02-16T09:20:58.492Z,3.30
2019-02-16T09:21:58.468Z,3.40
2019-02-16T09:22:58.447Z,3.60
2019-02-16T09:23:59.353Z,3.40
2019-02-16T09:24:58.404Z,3.30
2019-02-16T09:25:58.382Z,3.40
2019-02-16T09:26:58.363Z,3.30
2019-02-16T09:27:58.336Z,3.20
2019-02-16T09:28:58.318Z,3.20
2019-02-16T09:29:58.300Z,3.30
2019-02-16T09:30:58.282Z,3.30
2019-02-16T09:31:58.263Z,3.00
2019-02-16T09:32:58.234Z,3.40
2019-02-16T09:33:58.219Z,3.00
2019-02-16T09:34:58.196Z,3.00
2019-02-16T09:35:58.170Z,3.10
2019-02-16T09:36:58.153Z,2.80
2019-02-16T09:37:58.137Z,3.70
2019-02-16T09:38:58.110Z,3.40
2019-02-16T09:39:58.093Z,4.10
2019-02-16T09:40:58.068Z,4.00
2019-02-16T09:41:58.050Z,4.00
2019-02-16T09:42:58.027Z,3.80
2019-02-16T09:43:58.012Z,4.20
2019-02-16T09:44:57.988Z,3.70
2019-02-16T09:45:57.969Z,2.80
2019-02-16T09:46:57.947Z,2.80
2019-02-16T09:47:57.929Z,2.70
2019-02-16T09:48:57.910Z,3.20
2019-02-16T09:49:57.888Z,3.00
2019-02-16T09:50:57.868Z,3.40
2019-02-16T09:51:57.857Z,3.40
2019-02-16T09:52:57.829Z,2.70
2019-02-16T09:53:57.821Z,2.80
2019-02-16T09:54:57.793Z,2.20
2019-02-16T09:55:57.777Z,2.50
2019-02-16T09:56:57.752Z,2.60
2019-02-16T09:57:57.737Z,2.60
2019-02-16T09:58:57.713Z,2.40
2019-02-16T09:59:57.691Z,2.30
2019-02-16T10:00:57.677Z,2.30
2019-02-16T10:01:57.655Z,2.30
2019-02-16T10:02:57.641Z,2.50
2019-02-16T10:03:57.620Z,2.30
2019-02-16T10:04:57.600Z,2.30
2019-02-16T10:05:57.587Z,2.60
2019-02-16T10:06:57.567Z,2.40
2019-02-16T10:07:57.541Z,2.40
2019-02-16T10:08:57.526Z,2.10
2019-02-16T10:09:57.505Z,4.00
2019-02-16T10:10:57.491Z,6.30
2019-02-16T10:11:57.477Z,7.50
2019-02-16T10:12:57.454Z,3.10
2019-02-16T10:13:57.433Z,2.60
2019-02-16T10:14:57.427Z,2.60
2019-02-16T10:15:57.403Z,2.50
2019-02-16T10:16:57.385Z,3.40
2019-02-16T10:17:57.364Z,3.20
2019-02-16T10:18:57.348Z,3.10
2019-02-16T10:19:57.334Z,1.90
2019-02-16T10:20:57.315Z,2.00
2019-02-16T10:21:57.301Z,1.80
2019-02-16T10:22:57.281Z,1.70
2019-02-16T10:23:57.264Z,1.60
2019-02-16T10:24:57.247Z,2.30
2019-02-16T10:25:57.239Z,2.50
2019-02-16T10:26:57.216Z,2.80
2019-02-16T10:27:57.207Z,2.20
2019-02-16T10:28:57.187Z,1.90
2019-02-16T10:29:57.171Z,1.60
2019-02-16T10:30:57.152Z,1.60
2019-02-16T10:31:57.139Z,1.50
2019-02-16T10:32:57.121Z,1.60
2019-02-16T10:33:57.113Z,1.90
2019-02-16T10:34:57.089Z,1.50
2019-02-16T10:35:57.073Z,1.30
2019-02-16T10:36:57.061Z,1.50
2019-02-16T10:37:57.046Z,1.50
2019-02-16T10:38:57.027Z,1.30
2019-02-16T10:39:57.014Z,1.30
2019-02-16T10:40:56.994Z,1.20
2019-02-16T10:41:56.979Z,1.40
2019-02-16T10:42:56.965Z,1.50
2019-02-16T10:43:56.964Z,1.50
2019-02-16T10:44:56.940Z,1.90
2019-02-16T10:45:56.922Z,2.10
2019-02-16T10:46:56.908Z,1.90
2019-02-16T10:47:56.888Z,1.60
2019-02-16T10:48:56.877Z,1.40
2019-02-16T10:49:56.858Z,1.60
2019-02-16T10:50:56.860Z,1.30
2019-02-16T10:51:57.093Z,1.70
2019-02-16T10:52:56.815Z,1.50
2019-02-16T10:53:56.802Z,1.60
2019-02-16T10:54:56.782Z,1.50
2019-02-16T10:55:56.771Z,1.50
2019-02-16T10:56:56.755Z,1.40
2019-02-16T10:57:56.745Z,1.30
2019-02-16T10:58:56.725Z,1.40
2019-02-16T10:59:56.711Z,1.30
2019-02-16T11:00:56.700Z,1.40
2019-02-16T11:01:56.683Z,1.30
2019-02-16T11:02:56.665Z,1.40
2019-02-16T11:03:56.648Z,1.20
2019-02-16T11:04:56.945Z,1.30
2019-02-16T11:05:56.616Z,1.40
2019-02-16T11:06:56.608Z,1.20
2019-02-16T11:07:56.586Z,1.30
2019-02-16T11:08:56.574Z,1.20
2019-02-16T11:09:56.564Z,1.10
2019-02-16T11:10:56.548Z,1.30
2019-02-16T11:11:56.531Z,1.20
2019-02-16T11:12:56.513Z,1.00
2019-02-16T11:13:56.497Z,1.40
2019-02-16T11:14:56.485Z,1.30
2019-02-16T11:15:56.468Z,1.40
2019-02-16T11:16:56.453Z,1.60
2019-02-16T11:17:56.440Z,1.50
2019-02-16T11:18:56.436Z,1.30
2019-02-16T11:19:56.409Z,1.30
2019-02-16T11:20:56.400Z,1.50
2019-02-16T11:21:56.381Z,1.30
2019-02-16T11:22:56.363Z,1.30
2019-02-16T11:23:56.349Z,1.10
2019-02-16T11:24:56.336Z,1.30
2019-02-16T11:25:56.316Z,1.10
2019-02-16T11:26:56.308Z,1.30
2019-02-16T11:27:56.296Z,1.30
2019-02-16T11:28:56.286Z,1.20
2019-02-16T11:29:56.260Z,1.30
2019-02-16T11:30:56.246Z,1.20
2019-02-16T11:31:56.228Z,1.20
2019-02-16T11:32:56.212Z,1.00
2019-02-16T11:33:56.196Z,1.10
2019-02-16T11:34:56.186Z,1.20
2019-02-16T11:35:56.170Z,1.20
2019-02-16T11:36:56.167Z,1.40
2019-02-16T11:37:56.146Z,1.20
2019-02-16T11:38:56.128Z,1.50
2019-02-16T11:39:56.112Z,1.30
2019-02-16T11:40:56.114Z,1.20
2019-02-16T11:41:56.082Z,1.40
2019-02-16T11:42:56.062Z,1.20
2019-02-16T11:43:56.059Z,1.50
2019-02-16T11:44:56.038Z,1.40
2019-02-16T11:45:56.026Z,1.10
2019-02-16T11:46:56.004Z,1.40
2019-02-16T11:47:55.994Z,1.30
2019-02-16T11:48:55.982Z,1.30
2019-02-16T11:49:55.966Z,1.10
2019-02-16T11:50:55.972Z,1.30
2019-02-16T11:51:55.987Z,1.10
2019-02-16T11:52:55.922Z,1.10
2019-02-16T11:53:55.904Z,1.30
2019-02-16T11:54:55.888Z,1.20
2019-02-16T11:55:55.874Z,1.30
2019-02-16T11:56:55.863Z,1.40
2019-02-16T11:57:55.852Z,1.30
2019-02-16T11:58:55.833Z,1.40
2019-02-16T11:59:55.818Z,1.20
2019-02-16T12:00:55.800Z,1.00
2019-02-16T12:01:55.792Z,1.20
2019-02-16T12:02:55.778Z,1.10
2019-02-16T12:03:55.760Z,1.20
2019-02-16T12:04:55.744Z,1.00
2019-02-16T12:05:55.742Z,1.10
2019-02-16T12:06:55.716Z,1.30
2019-02-16T12:07:55.702Z,1.30
2019-02-16T12:08:55.690Z,1.10
2019-02-16T12:09:55.675Z,1.20
2019-02-16T12:10:55.663Z,1.40
2019-02-16T12:11:55.644Z,1.40
2019-02-16T12:12:55.630Z,1.40
2019-02-16T12:13:55.615Z,1.10
2019-02-16T12:14:55.604Z,1.40
2019-02-16T12:15:55.590Z,1.40
2019-02-16T12:16:55.574Z,1.80
2019-02-16T12:17:55.562Z,1.20
2019-02-16T12:18:55.542Z,1.30
2019-02-16T12:19:55.526Z,1.70
2019-02-16T12:20:55.511Z,1.30
2019-02-16T12:21:55.503Z,1.30
2019-02-16T12:22:55.484Z,1.10
2019-02-16T12:23:55.471Z,1.10
2019-02-16T12:25:05.005Z,1.00
2019-02-16T12:25:55.439Z,1.10
2019-02-16T12:26:55.430Z,1.00
2019-02-16T12:27:55.441Z,1.20
2019-02-16T12:28:55.398Z,1.10
2019-02-16T12:29:55.382Z,0.90
2019-02-16T12:30:55.374Z,0.90
2019-02-16T12:31:55.353Z,1.00
2019-02-16T12:32:55.340Z,1.10
2019-02-16T12:33:55.322Z,0.90
2019-02-16T12:34:55.308Z,1.10
2019-02-16T12:35:55.292Z,1.10
2019-02-16T12:36:55.277Z,0.80
2019-02-16T12:37:55.267Z,1.00
2019-02-16T12:39:04.327Z,0.90
2019-02-16T12:39:55.242Z,1.00
2019-02-16T12:40:55.221Z,0.90
2019-02-16T12:41:55.205Z,1.10
2019-02-16T12:42:55.190Z,0.90
2019-02-16T12:43:55.174Z,1.00
2019-02-16T12:44:55.163Z,1.00
2019-02-16T12:45:55.147Z,1.10
2019-02-16T12:46:55.128Z,1.20
2019-02-16T12:47:55.119Z,1.00
2019-02-16T12:48:55.096Z,1.00
2019-02-16T12:49:55.090Z,0.90
2019-02-16T12:50:55.069Z,1.10
2019-02-16T12:51:55.063Z,1.00
2019-02-16T12:52:55.041Z,0.90
2019-02-16T12:53:55.022Z,1.10
2019-02-16T12:54:55.010Z,1.10
2019-02-16T12:55:54.990Z,1.00
2019-02-16T12:56:54.986Z,1.00
2019-02-16T12:57:54.968Z,1.00
2019-02-16T12:58:54.947Z,0.90
2019-02-16T12:59:54.944Z,0.90
2019-02-16T13:00:54.921Z,1.00
2019-02-16T13:01:54.901Z,0.90
2019-02-16T13:02:54.890Z,0.90
2019-02-16T13:03:54.873Z,1.10
2019-02-16T13:04:54.855Z,1.30
2019-02-16T13:05:54.840Z,0.90
2019-02-16T13:06:54.831Z,1.00
2019-02-16T13:07:54.813Z,1.10
2019-02-16T13:08:54.798Z,0.90
2019-02-16T13:09:54.789Z,0.90
2019-02-16T13:10:54.771Z,1.00